Time;durP1;ratioP1;P1;durP2;ratioP2;P2;SDS_P1;SDS_P2;PMS_P1;PMS_P2;Temp;Humidity;BMP_temperature;BMP_pressure;BME280_temperature;BME280_humidity;BME280_pressure;Samples;Min_cycle;Max_cycle;Signal;HPM_P1;HPM_P2
2024/01/13 00:00:01;;;;;;;40.53;22.93;;;4.90;99.90;;;;;;5093425;28;20160;-81
2024/01/13 00:02:26;;;;;;;36.27;22.87;;;4.80;99.90;;;;;;5092972;28;20180;-80
2024/01/13 00:04:52;;;;;;;37.03;22.30;;;4.80;99.90;;;;;;5092081;28;20194;-81
2024/01/13 00:07:17;;;;;;;39.13;23.47;;;4.80;99.90;;;;;;5092113;28;20192;-81
2024/01/13 00:09:43;;;;;;;34.03;22.03;;;4.80;99.90;;;;;;5092017;28;20183;-81
2024/01/13 00:12:08;;;;;;;43.10;23.23;;;4.90;99.90;;;;;;5093108;28;20617;-81
2024/01/13 00:14:34;;;;;;;39.13;23.10;;;5.00;99.90;;;;;;5093149;28;20167;-83
2024/01/13 00:16:59;;;;;;;38.57;22.80;;;5.00;99.90;;;;;;5093186;28;20168;-82
2024/01/13 00:19:25;;;;;;;37.30;23.13;;;5.10;99.90;;;;;;5093230;28;20175;-82
2024/01/13 00:21:50;;;;;;;37.70;23.87;;;5.10;99.90;;;;;;5093326;28;20580;-82
2024/01/13 00:24:16;;;;;;;38.30;24.03;;;5.10;99.90;;;;;;5093433;28;20589;-80
2024/01/13 00:26:42;;;;;;;41.83;23.10;;;5.00;99.90;;;;;;5092336;28;20619;-81
2024/01/13 00:29:08;;;;;;;36.50;22.50;;;5.10;99.90;;;;;;5092865;28;20682;-82
2024/01/13 00:31:34;;;;;;;36.80;22.67;;;5.20;99.90;;;;;;5091257;28;20204;-81
2024/01/13 00:33:59;;;;;;;35.50;22.97;;;5.20;99.90;;;;;;5093175;28;20172;-81
2024/01/13 00:36:25;;;;;;;35.97;21.47;;;5.20;99.90;;;;;;5093114;28;20180;-81
2024/01/13 00:38:51;;;;;;;39.13;23.77;;;5.40;99.90;;;;;;5092814;28;20183;-81
2024/01/13 00:41:16;;;;;;;38.67;21.40;;;5.40;99.90;;;;;;5091774;28;20187;-82
2024/01/13 00:43:42;;;;;;;35.80;23.23;;;5.30;99.90;;;;;;5093182;28;20168;-80
2024/01/13 00:46:08;;;;;;;36.17;22.73;;;5.20;99.90;;;;;;5091291;28;20178;-80
2024/01/13 00:48:36;;;;;;;30.60;20.23;;;5.10;99.90;;;;;;5092957;28;20547;-81
2024/01/13 00:51:02;;;;;;;31.70;20.10;;;5.00;99.90;;;;;;5093053;28;20188;-81
2024/01/13 00:53:28;;;;;;;36.43;21.47;;;5.00;99.90;;;;;;5092492;28;20217;-81
2024/01/13 00:55:54;;;;;;;35.87;21.83;;;4.90;99.90;;;;;;5092884;28;20172;-82
2024/01/13 00:58:19;;;;;;;35.17;21.40;;;5.00;99.90;;;;;;5092782;28;20639;-80
2024/01/13 01:00:45;;;;;;;31.40;19.93;;;5.10;99.90;;;;;;5092588;28;20263;-81
2024/01/13 01:03:11;;;;;;;30.60;19.27;;;5.10;99.90;;;;;;5093984;28;20176;-82
2024/01/13 01:05:36;;;;;;;31.33;18.97;;;5.00;99.90;;;;;;5093687;28;20651;-80
2024/01/13 01:08:03;;;;;;;28.50;17.33;;;4.90;99.90;;;;;;5096461;28;20167;-81
2024/01/13 01:10:28;;;;;;;27.97;18.33;;;4.90;99.90;;;;;;5094961;28;20171;-81
2024/01/13 01:12:54;;;;;;;27.53;18.77;;;5.00;99.90;;;;;;5096537;28;20183;-81
2024/01/13 01:15:19;;;;;;;29.97;19.20;;;5.00;99.90;;;;;;5095045;28;20193;-80
2024/01/13 01:17:45;;;;;;;31.63;19.23;;;5.00;99.90;;;;;;5095177;28;20535;-81
2024/01/13 01:20:11;;;;;;;33.10;20.57;;;5.10;99.90;;;;;;5096344;28;20221;-81
2024/01/13 01:22:36;;;;;;;30.13;19.43;;;5.10;99.90;;;;;;5096310;28;20701;-80
2024/01/13 01:25:02;;;;;;;31.23;19.23;;;5.20;99.90;;;;;;5096295;28;20176;-81
2024/01/13 01:27:28;;;;;;;30.07;19.00;;;5.20;99.90;;;;;;5096279;28;20178;-80
2024/01/13 01:29:53;;;;;;;26.13;17.67;;;5.20;99.90;;;;;;5095897;28;20219;-81
2024/01/13 01:32:19;;;;;;;27.80;17.97;;;5.20;99.90;;;;;;5095981;28;20242;-80
2024/01/13 01:34:44;;;;;;;27.43;18.33;;;5.20;99.90;;;;;;5094929;28;20232;-80
2024/01/13 01:37:10;;;;;;;30.00;18.23;;;5.20;99.90;;;;;;5095837;28;20659;-80
2024/01/13 01:39:36;;;;;;;26.73;18.47;;;5.20;99.90;;;;;;5096049;28;20180;-81
2024/01/13 01:42:01;;;;;;;28.47;17.20;;;5.30;99.90;;;;;;5094492;28;20228;-80
2024/01/13 01:44:27;;;;;;;26.40;17.03;;;5.30;99.90;;;;;;5095577;28;20168;-80
2024/01/13 01:46:54;;;;;;;29.53;16.37;;;5.30;99.90;;;;;;5095654;28;20183;-81
2024/01/13 01:49:19;;;;;;;24.50;16.50;;;5.30;99.90;;;;;;5095617;28;20179;-80
2024/01/13 01:51:45;;;;;;;25.40;16.73;;;5.50;99.90;;;;;;5093892;28;20211;-80
2024/01/13 01:54:11;;;;;;;24.57;16.67;;;5.50;99.90;;;;;;5094219;28;20520;-81
2024/01/13 01:56:38;;;;;;;24.20;15.60;;;5.50;99.90;;;;;;5095429;28;20174;-80
2024/01/13 01:59:04;;;;;;;22.10;15.43;;;5.50;99.90;;;;;;5093919;28;20231;-80
2024/01/13 02:01:31;;;;;;;30.47;20.00;;;5.40;99.90;;;;;;5095243;28;20191;-80
2024/01/13 02:03:57;;;;;;;25.97;16.17;;;5.30;99.90;;;;;;5095128;28;20186;-80
2024/01/13 02:06:24;;;;;;;36.33;20.67;;;5.40;99.90;;;;;;5094965;28;20529;-80
2024/01/13 02:08:50;;;;;;;30.00;19.17;;;5.40;99.90;;;;;;5095279;28;20172;-80
2024/01/13 02:11:16;;;;;;;26.70;16.77;;;5.30;99.90;;;;;;5093925;28;20284;-80
2024/01/13 02:13:44;;;;;;;29.43;17.53;;;5.30;99.90;;;;;;5095007;28;20666;-80
2024/01/13 02:16:10;;;;;;;26.03;17.00;;;5.30;99.90;;;;;;5093708;28;20267;-81
2024/01/13 02:18:36;;;;;;;24.27;17.40;;;5.20;99.90;;;;;;5094543;28;20172;-80
2024/01/13 02:21:02;;;;;;;28.87;17.17;;;5.30;99.90;;;;;;5094482;28;20230;-81
2024/01/13 02:23:29;;;;;;;27.03;17.23;;;5.30;99.90;;;;;;5095179;28;20210;-79
2024/01/13 02:25:55;;;;;;;22.17;16.80;;;5.20;99.90;;;;;;5094854;28;20170;-80
2024/01/13 02:28:20;;;;;;;24.33;17.70;;;5.20;99.90;;;;;;5094622;28;20168;-79
2024/01/13 02:30:46;;;;;;;26.23;17.57;;;5.10;99.90;;;;;;5094955;28;20204;-80
2024/01/13 02:33:11;;;;;;;25.57;16.93;;;5.10;99.90;;;;;;5094973;28;20241;-81
2024/01/13 02:35:37;;;;;;;27.20;17.00;;;4.90;99.90;;;;;;5093847;28;20176;-80
2024/01/13 02:38:03;;;;;;;25.07;16.63;;;4.90;99.90;;;;;;5093609;28;20171;-81
2024/01/13 02:40:28;;;;;;;27.03;17.97;;;5.00;99.90;;;;;;5095004;28;20171;-80
2024/01/13 02:42:54;;;;;;;30.60;17.40;;;4.90;99.90;;;;;;5094696;28;20172;-80
2024/01/13 02:45:19;;;;;;;23.83;16.50;;;4.90;99.90;;;;;;5093490;28;20171;-80
2024/01/13 02:47:49;;;;;;;24.07;17.37;;;4.80;99.90;;;;;;5094535;28;20172;-81
2024/01/13 02:50:14;;;;;;;27.30;17.63;;;4.80;99.90;;;;;;5094097;28;20214;-82
2024/01/13 02:52:42;;;;;;;26.60;17.97;;;5.00;99.90;;;;;;5094581;28;20705;-80
2024/01/13 02:55:08;;;;;;;31.50;18.27;;;5.10;99.90;;;;;;5092934;28;20638;-81
2024/01/13 02:57:34;;;;;;;27.37;17.40;;;5.10;99.90;;;;;;5094301;28;20186;-82
2024/01/13 02:59:59;;;;;;;31.23;18.73;;;5.20;99.90;;;;;;5094447;28;20646;-80
2024/01/13 03:02:25;;;;;;;29.53;18.30;;;5.20;99.90;;;;;;5094233;28;20204;-81
2024/01/13 03:04:50;;;;;;;27.50;17.37;;;5.10;99.90;;;;;;5093947;28;20195;-81
2024/01/13 03:07:16;;;;;;;25.53;18.33;;;5.10;99.90;;;;;;5094222;28;20179;-80
2024/01/13 03:09:41;;;;;;;31.30;18.57;;;5.20;99.90;;;;;;5094106;28;20601;-82
2024/01/13 03:12:07;;;;;;;31.20;19.10;;;5.10;99.90;;;;;;5094018;28;20211;-81
2024/01/13 03:14:32;;;;;;;27.13;18.17;;;5.00;99.90;;;;;;5094221;28;20172;-80
2024/01/13 03:16:58;;;;;;;25.67;18.07;;;5.10;99.90;;;;;;5092742;28;20180;-80
2024/01/13 03:19:24;;;;;;;32.93;18.93;;;5.10;99.90;;;;;;5093586;28;20173;-81
2024/01/13 03:21:50;;;;;;;27.70;17.73;;;5.10;99.90;;;;;;5094010;28;20172;-81
2024/01/13 03:24:15;;;;;;;28.83;18.03;;;5.10;99.90;;;;;;5093987;28;20171;-81
2024/01/13 03:26:41;;;;;;;28.10;18.07;;;5.10;99.90;;;;;;5093511;28;20176;-80
2024/01/13 03:29:06;;;;;;;29.97;17.97;;;5.20;99.90;;;;;;5092864;28;20228;-81
2024/01/13 03:31:32;;;;;;;26.13;17.47;;;5.30;99.90;;;;;;5092497;28;20199;-80
2024/01/13 03:33:57;;;;;;;27.70;17.80;;;5.20;99.90;;;;;;5093420;28;20684;-80
2024/01/13 03:36:23;;;;;;;32.00;18.63;;;5.10;99.90;;;;;;5093750;28;20176;-81
2024/01/13 03:38:48;;;;;;;23.73;16.37;;;5.00;99.90;;;;;;5093846;28;20521;-81
2024/01/13 03:41:19;;;;;;;29.47;18.37;;;5.00;99.90;;;;;;5092215;28;20542;-81
2024/01/13 03:43:45;;;;;;;29.10;17.33;;;4.90;99.90;;;;;;5092385;28;20176;-81
2024/01/13 03:46:11;;;;;;;23.37;16.37;;;5.00;99.90;;;;;;5093529;28;20183;-81
2024/01/13 03:48:37;;;;;;;25.43;17.30;;;4.90;99.90;;;;;;5093328;28;20238;-81
2024/01/13 03:51:02;;;;;;;28.67;17.10;;;4.80;99.90;;;;;;5092226;28;20199;-83
2024/01/13 03:53:28;;;;;;;24.70;16.57;;;4.80;99.90;;;;;;5093017;28;20654;-81
2024/01/13 03:55:54;;;;;;;28.40;16.93;;;4.90;99.90;;;;;;5091972;28;20178;-83
2024/01/13 03:58:20;;;;;;;24.73;16.33;;;4.90;99.90;;;;;;5093519;28;20200;-80
2024/01/13 04:00:46;;;;;;;26.50;17.00;;;4.90;99.90;;;;;;5093383;28;20254;-81
2024/01/13 04:03:11;;;;;;;26.73;15.53;;;5.00;99.90;;;;;;5091887;28;20172;-82
2024/01/13 04:05:37;;;;;;;25.17;16.50;;;5.00;99.90;;;;;;5097958;28;20236;-81
2024/01/13 04:08:03;;;;;;;23.50;16.73;;;4.90;99.90;;;;;;5093813;28;20662;-81
2024/01/13 04:10:29;;;;;;;25.17;16.80;;;4.90;99.90;;;;;;5093617;28;20188;-80
2024/01/13 04:12:56;;;;;;;24.00;16.97;;;5.00;99.90;;;;;;5093321;28;20651;-81
2024/01/13 04:15:22;;;;;;;27.17;16.50;;;5.00;99.90;;;;;;5092335;28;20167;-81
2024/01/13 04:17:48;;;;;;;23.53;15.97;;;5.00;99.90;;;;;;5092750;28;20175;-81
2024/01/13 04:20:13;;;;;;;24.00;16.13;;;5.00;99.90;;;;;;5092126;28;20272;-81
2024/01/13 04:22:39;;;;;;;24.83;15.33;;;5.00;99.90;;;;;;5093310;28;20175;-81
2024/01/13 04:25:05;;;;;;;21.27;15.67;;;5.00;99.90;;;;;;5093262;28;20171;-81
2024/01/13 04:27:31;;;;;;;24.27;15.70;;;5.00;99.90;;;;;;5093410;28;20719;-81
2024/01/13 04:29:56;;;;;;;25.57;15.43;;;4.90;99.90;;;;;;5093137;28;20220;-81
2024/01/13 04:32:22;;;;;;;22.30;15.30;;;4.80;99.90;;;;;;5093263;28;20574;-81
2024/01/13 04:34:48;;;;;;;26.07;16.07;;;4.80;99.90;;;;;;5092869;28;20168;-81
2024/01/13 04:37:14;;;;;;;24.43;15.37;;;4.60;99.90;;;;;;5091825;28;20164;-81
2024/01/13 04:39:39;;;;;;;19.50;14.13;;;4.50;99.90;;;;;;5093033;28;20692;-81
2024/01/13 04:42:05;;;;;;;22.50;15.10;;;4.60;99.90;;;;;;5096870;28;20171;-81
2024/01/13 04:44:32;;;;;;;22.93;15.13;;;4.60;99.90;;;;;;5095882;28;20179;-81
2024/01/13 04:46:57;;;;;;;23.63;14.60;;;4.70;99.90;;;;;;5095395;28;20172;-80
2024/01/13 04:49:23;;;;;;;22.03;14.60;;;4.70;99.90;;;;;;5095347;28;20221;-80
2024/01/13 04:51:49;;;;;;;21.17;15.10;;;4.70;99.90;;;;;;5095480;28;20214;-81
2024/01/13 04:54:15;;;;;;;20.77;14.63;;;4.60;99.90;;;;;;5095247;28;20175;-80
2024/01/13 04:56:40;;;;;;;18.30;13.07;;;4.70;99.90;;;;;;5095345;28;20362;-81
2024/01/13 04:59:06;;;;;;;21.37;13.53;;;4.60;99.90;;;;;;5096225;28;20168;-81
2024/01/13 05:01:31;;;;;;;21.17;13.60;;;4.60;99.90;;;;;;5094872;28;20547;-81
2024/01/13 05:03:57;;;;;;;21.20;14.70;;;4.50;99.90;;;;;;5095172;28;20175;-80
2024/01/13 05:06:23;;;;;;;19.83;14.67;;;4.60;99.90;;;;;;5094826;28;20631;-82
2024/01/13 05:08:48;;;;;;;23.87;14.27;;;4.60;99.90;;;;;;5094991;28;20623;-81
2024/01/13 05:11:14;;;;;;;24.33;14.73;;;4.60;99.90;;;;;;5094940;28;20227;-81
2024/01/13 05:13:39;;;;;;;22.70;14.90;;;4.50;99.90;;;;;;5095804;28;20255;-81
2024/01/13 05:16:05;;;;;;;24.23;15.33;;;4.50;99.90;;;;;;5096011;28;20245;-81
2024/01/13 05:18:30;;;;;;;19.20;13.73;;;4.60;99.90;;;;;;5095947;28;20180;-82
2024/01/13 05:20:56;;;;;;;22.60;14.20;;;4.60;99.90;;;;;;5094618;28;20287;-81
2024/01/13 05:23:22;;;;;;;18.77;12.63;;;4.60;99.90;;;;;;5094745;28;20266;-81
2024/01/13 05:25:47;;;;;;;21.07;13.70;;;4.70;99.90;;;;;;5094687;28;20233;-80
2024/01/13 05:28:13;;;;;;;18.70;12.93;;;4.70;99.90;;;;;;5095662;28;20182;-81
2024/01/13 05:30:38;;;;;;;19.80;13.67;;;4.70;99.90;;;;;;5095669;28;20271;-80
2024/01/13 05:33:04;;;;;;;18.87;13.10;;;4.80;99.90;;;;;;5094724;28;20692;-81
2024/01/13 05:35:29;;;;;;;18.93;12.17;;;4.80;99.90;;;;;;5096780;28;20174;-81
2024/01/13 05:37:55;;;;;;;15.03;11.70;;;4.90;99.90;;;;;;5098376;28;20172;-81
2024/01/13 05:40:21;;;;;;;16.00;11.73;;;4.90;99.90;;;;;;5095859;28;20160;-81
2024/01/13 05:42:46;;;;;;;16.57;12.13;;;4.70;99.90;;;;;;5095888;28;20217;-81
2024/01/13 05:45:12;;;;;;;14.90;11.93;;;4.70;99.90;;;;;;5095402;28;20203;-81
2024/01/13 05:47:37;;;;;;;18.47;11.80;;;4.70;99.90;;;;;;5095498;28;20647;-80
2024/01/13 05:50:03;;;;;;;16.33;11.87;;;4.70;99.90;;;;;;5095442;28;20600;-81
2024/01/13 05:52:30;;;;;;;17.07;11.87;;;4.80;99.90;;;;;;5094322;28;20230;-82
2024/01/13 05:54:56;;;;;;;14.27;11.43;;;4.80;99.90;;;;;;5095024;28;20168;-82
2024/01/13 05:57:22;;;;;;;17.77;12.00;;;4.90;99.90;;;;;;5095146;28;20187;-81
2024/01/13 05:59:47;;;;;;;14.57;11.83;;;4.90;99.90;;;;;;5095103;28;20168;-81
2024/01/13 06:02:14;;;;;;;14.33;11.53;;;4.90;99.90;;;;;;5095207;28;20191;-81
2024/01/13 06:04:40;;;;;;;17.40;12.50;;;4.90;99.90;;;;;;5095261;28;20172;-81
2024/01/13 06:07:06;;;;;;;15.57;11.70;;;4.90;99.90;;;;;;5095352;28;20183;-81
2024/01/13 06:09:32;;;;;;;14.83;11.97;;;4.90;99.90;;;;;;5094719;28;20167;-81
2024/01/13 06:11:57;;;;;;;16.83;11.87;;;4.90;99.90;;;;;;5095089;28;20211;-81
2024/01/13 06:14:23;;;;;;;15.73;11.77;;;5.00;99.90;;;;;;5094872;28;20167;-81
2024/01/13 06:16:49;;;;;;;19.27;13.07;;;5.00;99.90;;;;;;5094724;28;20172;-81
2024/01/13 06:19:14;;;;;;;16.77;12.40;;;5.00;99.90;;;;;;5094996;28;20206;-81
2024/01/13 06:21:42;;;;;;;18.37;13.23;;;5.00;99.90;;;;;;5094778;28;20632;-82
2024/01/13 06:24:10;;;;;;;19.17;13.13;;;5.00;99.90;;;;;;5093657;28;20188;-81
2024/01/13 06:26:40;;;;;;;17.33;12.43;;;5.10;99.90;;;;;;5093546;28;20540;-81
2024/01/13 06:29:06;;;;;;;18.20;13.47;;;5.00;99.90;;;;;;5094121;28;20207;-82
2024/01/13 06:31:32;;;;;;;19.70;14.00;;;5.00;99.90;;;;;;5094757;28;20288;-81
2024/01/13 06:33:57;;;;;;;20.20;14.03;;;4.90;99.90;;;;;;5093368;28;20201;-82
2024/01/13 06:36:23;;;;;;;18.17;13.73;;;4.90;99.90;;;;;;5093290;28;20171;-81
2024/01/13 06:38:48;;;;;;;21.47;14.70;;;5.00;99.90;;;;;;5094431;28;20171;-81
2024/01/13 06:41:14;;;;;;;19.43;13.53;;;5.00;99.90;;;;;;5093238;28;20623;-81
2024/01/13 06:43:40;;;;;;;19.07;13.67;;;5.10;99.90;;;;;;5094199;28;20635;-82
2024/01/13 06:46:08;;;;;;;21.10;14.73;;;5.10;99.90;;;;;;5092956;28;20241;-81
2024/01/13 06:48:34;;;;;;;20.70;14.00;;;4.90;99.90;;;;;;5094059;28;20168;-81
2024/01/13 06:51:00;;;;;;;20.37;14.60;;;4.80;99.90;;;;;;5094204;28;20204;-82
2024/01/13 06:53:25;;;;;;;21.67;15.43;;;4.90;99.90;;;;;;5094425;28;20237;-82
2024/01/13 06:55:51;;;;;;;20.30;14.97;;;4.90;99.90;;;;;;5092475;28;20179;-82
2024/01/13 06:58:17;;;;;;;18.27;14.00;;;4.90;99.90;;;;;;5092794;28;20643;-82
2024/01/13 07:00:42;;;;;;;20.73;15.10;;;4.90;99.90;;;;;;5092999;28;20187;-81
2024/01/13 07:03:08;;;;;;;20.80;15.13;;;4.80;99.90;;;;;;5092836;28;20205;-83
2024/01/13 07:05:34;;;;;;;20.73;14.77;;;4.80;99.90;;;;;;5093891;28;20203;-82
2024/01/13 07:08:04;;;;;;;21.03;14.47;;;4.80;99.90;;;;;;5096736;28;20649;-83
2024/01/13 07:10:30;;;;;;;29.43;14.87;;;4.80;99.90;;;;;;5094535;28;20631;-82
2024/01/13 07:12:56;;;;;;;20.53;14.90;;;4.80;99.90;;;;;;5094016;28;20294;-82
2024/01/13 07:15:22;;;;;;;24.50;15.87;;;4.80;99.90;;;;;;5093751;28;20176;-81
2024/01/13 07:17:47;;;;;;;24.33;15.20;;;4.70;99.90;;;;;;5093480;28;20643;-82
2024/01/13 07:20:13;;;;;;;23.07;15.60;;;4.70;99.90;;;;;;5092524;28;20308;-81
2024/01/13 07:22:39;;;;;;;23.97;16.30;;;4.70;99.90;;;;;;5091776;28;20635;-82
2024/01/13 07:25:05;;;;;;;22.13;15.60;;;4.60;99.90;;;;;;5093067;28;20164;-83
2024/01/13 07:27:31;;;;;;;22.27;15.80;;;4.60;99.90;;;;;;5093894;28;20168;-82
2024/01/13 07:29:58;;;;;;;26.50;16.33;;;4.60;99.90;;;;;;5092829;28;20553;-82
2024/01/13 07:32:25;;;;;;;24.83;16.77;;;4.50;99.90;;;;;;5092204;28;20227;-83
2024/01/13 07:34:51;;;;;;;21.37;15.60;;;4.50;99.90;;;;;;5093279;28;20688;-82
2024/01/13 07:37:16;;;;;;;22.63;15.97;;;4.40;99.90;;;;;;5092033;28;20671;-82
2024/01/13 07:39:43;;;;;;;26.17;17.03;;;4.40;99.90;;;;;;5091173;28;20180;-81
2024/01/13 07:42:09;;;;;;;22.57;16.30;;;4.40;99.90;;;;;;5092892;28;20210;-82
2024/01/13 07:44:34;;;;;;;24.87;16.73;;;4.30;99.90;;;;;;5093410;28;20199;-82
2024/01/13 07:47:03;;;;;;;27.67;17.47;;;4.30;99.90;;;;;;5093136;28;20176;-81
2024/01/13 07:49:29;;;;;;;30.73;17.83;;;4.30;99.90;;;;;;5092897;28;20171;-82
2024/01/13 07:51:54;;;;;;;27.57;17.57;;;4.40;99.90;;;;;;5093651;28;20566;-82
2024/01/13 07:54:20;;;;;;;25.57;17.13;;;4.40;99.90;;;;;;5092711;28;20166;-82
2024/01/13 07:56:47;;;;;;;29.17;18.00;;;4.40;99.90;;;;;;5093141;28;20236;-81
2024/01/13 07:59:13;;;;;;;26.03;17.47;;;4.40;99.90;;;;;;5092937;28;20720;-82
2024/01/13 08:01:39;;;;;;;29.90;18.60;;;4.30;99.90;;;;;;5092709;28;20237;-81
2024/01/13 08:04:05;;;;;;;29.43;19.03;;;4.30;99.90;;;;;;5093246;28;20175;-82
2024/01/13 08:06:31;;;;;;;29.07;18.50;;;4.30;99.90;;;;;;5093005;28;20172;-81
2024/01/13 08:08:57;;;;;;;30.70;18.80;;;4.30;99.90;;;;;;5091649;28;20225;-83
2024/01/13 08:11:23;;;;;;;31.37;18.03;;;4.20;99.90;;;;;;5091448;28;20196;-82
2024/01/13 08:13:48;;;;;;;29.77;18.33;;;4.20;99.90;;;;;;5091901;28;20237;-82
2024/01/13 08:16:14;;;;;;;31.93;18.90;;;4.20;99.90;;;;;;5094303;28;20180;-82
2024/01/13 08:18:39;;;;;;;28.03;18.83;;;4.20;99.90;;;;;;5095619;28;20172;-82
2024/01/13 08:21:05;;;;;;;33.30;19.20;;;4.20;99.90;;;;;;5096906;28;20180;-82
2024/01/13 08:23:31;;;;;;;31.10;18.67;;;4.10;99.90;;;;;;5095116;28;20171;-81
2024/01/13 08:25:56;;;;;;;37.07;19.23;;;4.10;99.90;;;;;;5096008;28;20199;-83
2024/01/13 08:28:22;;;;;;;33.93;18.33;;;4.20;99.90;;;;;;5095440;28;20202;-84
2024/01/13 08:30:48;;;;;;;32.40;19.77;;;4.10;99.90;;;;;;5095259;28;20228;-83
2024/01/13 08:33:13;;;;;;;27.87;17.27;;;4.10;99.90;;;;;;5095721;28;20164;-83
2024/01/13 08:35:39;;;;;;;30.53;18.57;;;4.20;99.90;;;;;;5095486;28;20168;-82
2024/01/13 08:38:05;;;;;;;29.67;19.43;;;4.30;99.90;;;;;;5095135;28;20296;-83
2024/01/13 08:40:30;;;;;;;32.77;18.90;;;4.20;99.90;;;;;;5080287;28;20195;-82
2024/01/13 08:42:56;;;;;;;34.03;19.30;;;4.20;99.90;;;;;;5095815;28;20175;-82
2024/01/13 08:45:29;;;;;;;34.07;19.60;;;4.20;99.90;;;;;;5095515;28;20179;-82
2024/01/13 08:47:58;;;;;;;33.07;19.20;;;4.20;99.90;;;;;;5095532;28;20168;-83
2024/01/13 08:50:24;;;;;;;32.67;19.80;;;4.20;99.90;;;;;;5094961;28;20179;-82
2024/01/13 08:52:54;;;;;;;33.53;19.27;;;4.30;99.90;;;;;;5094748;28;20212;-81
2024/01/13 08:55:21;;;;;;;34.07;19.30;;;4.20;99.90;;;;;;5096254;28;20164;-82
2024/01/13 08:57:47;;;;;;;32.17;19.40;;;4.30;99.90;;;;;;5094598;28;20176;-83
2024/01/13 09:00:13;;;;;;;31.80;19.60;;;4.20;99.90;;;;;;5095153;28;20198;-81
2024/01/13 09:02:39;;;;;;;33.93;19.83;;;4.20;99.90;;;;;;5095430;28;20252;-82
2024/01/13 09:05:06;;;;;;;29.83;19.60;;;4.20;99.90;;;;;;5096167;28;20639;-81
2024/01/13 09:07:33;;;;;;;32.40;18.93;;;4.20;99.90;;;;;;5094675;28;20267;-81
2024/01/13 09:09:59;;;;;;;30.73;18.63;;;4.30;99.90;;;;;;5094852;28;20176;-81
2024/01/13 09:12:24;;;;;;;30.23;18.47;;;4.10;99.90;;;;;;5094479;28;20213;-82
2024/01/13 09:14:51;;;;;;;32.37;19.97;;;4.20;99.90;;;;;;5094967;28;20240;-82
2024/01/13 09:17:16;;;;;;;29.70;19.10;;;4.30;99.90;;;;;;5094544;28;20168;-82
2024/01/13 09:19:42;;;;;;;32.03;19.10;;;4.30;99.90;;;;;;5094504;28;20168;-83
2024/01/13 09:22:08;;;;;;;32.43;19.33;;;4.30;99.90;;;;;;5094469;28;20176;-82
2024/01/13 09:24:33;;;;;;;31.20;19.43;;;4.40;99.90;;;;;;5094471;28;20168;-84
2024/01/13 09:26:59;;;;;;;30.20;19.20;;;4.40;99.90;;;;;;5094624;28;20175;-83
2024/01/13 09:29:24;;;;;;;31.23;19.10;;;4.50;99.90;;;;;;5095473;28;20285;-83
2024/01/13 09:31:50;;;;;;;31.43;19.37;;;4.50;99.90;;;;;;5094178;28;20631;-82
2024/01/13 09:34:16;;;;;;;29.40;18.60;;;4.40;99.90;;;;;;5094858;28;20557;-83
2024/01/13 09:36:42;;;;;;;32.00;19.50;;;4.40;99.90;;;;;;5094038;28;20179;-82
2024/01/13 09:39:11;;;;;;;31.90;19.90;;;4.40;99.90;;;;;;5094505;28;20176;-83
2024/01/13 09:41:46;;;;;;;30.57;18.50;;;4.40;99.90;;;;;;5095417;28;20259;-83
2024/01/13 09:44:14;;;;;;;32.00;18.87;;;4.50;99.90;;;;;;5095570;28;20172;-83
2024/01/13 09:46:41;;;;;;;33.60;19.40;;;4.30;99.90;;;;;;5094378;28;20176;-82
2024/01/13 09:49:12;;;;;;;29.57;19.33;;;4.40;99.90;;;;;;5096074;28;20171;-83
2024/01/13 09:51:39;;;;;;;32.33;19.63;;;4.40;99.90;;;;;;5093662;28;20203;-83
2024/01/13 09:54:26;;;;;;;34.93;19.63;;;4.40;99.90;;;;;;5094486;28;20251;-83
2024/01/13 09:56:53;;;;;;;26.33;17.17;;;4.40;99.90;;;;;;5093847;28;20178;-82
2024/01/13 09:59:22;;;;;;;31.50;19.87;;;4.50;99.90;;;;;;5095169;28;20255;-82
2024/01/13 10:01:49;;;;;;;29.13;19.13;;;4.60;99.90;;;;;;5093902;28;20301;-85
2024/01/13 10:04:14;;;;;;;33.57;19.43;;;4.60;99.90;;;;;;5095168;28;20168;-83
2024/01/13 10:06:41;;;;;;;32.40;20.60;;;4.50;99.90;;;;;;5094589;28;20267;-84
2024/01/13 10:09:07;;;;;;;34.77;19.80;;;4.50;99.90;;;;;;5093801;28;20186;-83
2024/01/13 10:11:33;;;;;;;34.80;19.87;;;4.60;99.90;;;;;;5094596;28;20235;-82
2024/01/13 10:14:04;;;;;;;30.80;19.63;;;4.60;99.90;;;;;;5094257;28;20650;-84
2024/01/13 10:16:31;;;;;;;33.07;19.13;;;4.50;99.90;;;;;;5093946;28;20247;-82
2024/01/13 10:19:03;;;;;;;27.77;19.67;;;4.50;99.90;;;;;;5093406;28;20256;-83
2024/01/13 10:21:29;;;;;;;34.60;20.90;;;4.50;99.90;;;;;;5093237;28;20564;-82
2024/01/13 10:23:56;;;;;;;35.47;20.00;;;4.50;99.90;;;;;;5094328;28;20175;-83
2024/01/13 10:26:23;;;;;;;29.40;20.37;;;4.60;99.90;;;;;;5094743;28;20615;-81
2024/01/13 10:28:50;;;;;;;32.73;20.37;;;4.70;99.90;;;;;;5094469;28;20226;-83
2024/01/13 10:31:17;;;;;;;31.37;19.93;;;4.70;99.90;;;;;;5094105;28;20199;-82
2024/01/13 10:33:47;;;;;;;34.27;21.23;;;4.70;99.90;;;;;;5092947;28;20180;-84
2024/01/13 10:36:13;;;;;;;30.50;20.37;;;4.70;99.90;;;;;;5094164;28;20172;-83
2024/01/13 10:38:42;;;;;;;28.17;19.87;;;4.70;99.90;;;;;;5094388;28;20171;-82
2024/01/13 10:41:09;;;;;;;28.53;19.77;;;4.80;99.90;;;;;;5092661;28;20286;-83
2024/01/13 10:43:38;;;;;;;30.07;20.53;;;4.70;99.90;;;;;;5094105;28;20164;-82
2024/01/13 10:46:10;;;;;;;31.33;19.47;;;4.70;99.90;;;;;;5094207;28;20159;-83
2024/01/13 10:48:47;;;;;;;32.27;21.07;;;4.80;99.90;;;;;;5093730;28;20172;-82
2024/01/13 10:51:27;;;;;;;31.70;20.40;;;4.80;99.90;;;;;;5092183;28;20655;-83
2024/01/13 10:53:54;;;;;;;32.20;20.60;;;4.80;99.90;;;;;;5093801;28;20182;-82
2024/01/13 10:56:20;;;;;;;27.90;19.77;;;4.80;99.90;;;;;;5093998;28;20178;-83
2024/01/13 10:58:49;;;;;;;27.57;18.53;;;4.80;99.90;;;;;;5093960;28;20184;-83
2024/01/13 11:01:14;;;;;;;33.87;20.87;;;4.70;99.90;;;;;;5094034;28;20183;-83
2024/01/13 11:03:41;;;;;;;32.97;19.93;;;4.60;99.90;;;;;;5093300;28;20623;-84
2024/01/13 11:06:07;;;;;;;32.43;19.70;;;4.80;99.90;;;;;;5092419;28;20216;-83
2024/01/13 11:08:33;;;;;;;30.43;20.33;;;4.80;99.90;;;;;;5093208;28;20172;-82
2024/01/13 11:11:01;;;;;;;31.10;20.27;;;4.80;99.90;;;;;;5093656;28;20167;-82
2024/01/13 11:13:32;;;;;;;32.13;19.77;;;4.60;99.90;;;;;;5094062;28;20179;-82
2024/01/13 11:16:11;;;;;;;28.90;19.20;;;4.60;99.90;;;;;;5092402;28;20168;-82
2024/01/13 11:18:37;;;;;;;29.50;19.33;;;4.60;99.90;;;;;;5093484;28;20254;-82
2024/01/13 11:21:05;;;;;;;31.70;20.00;;;4.60;99.90;;;;;;5093804;28;20175;-83
2024/01/13 11:23:45;;;;;;;28.97;19.03;;;4.70;99.90;;;;;;5094039;28;20163;-82
2024/01/13 11:26:14;;;;;;;30.90;20.20;;;4.60;99.90;;;;;;5093598;28;20172;-83
2024/01/13 11:28:48;;;;;;;33.63;19.13;;;4.70;99.90;;;;;;5092278;28;20270;-82
2024/01/13 11:31:39;;;;;;;32.67;20.97;;;4.60;99.90;;;;;;5092193;28;20221;-84
2024/01/13 11:34:16;;;;;;;28.13;18.93;;;4.70;99.90;;;;;;5092192;28;20167;-82
2024/01/13 11:36:47;;;;;;;31.33;19.90;;;4.60;99.90;;;;;;5093124;28;20166;-83
2024/01/13 11:39:13;;;;;;;31.47;19.77;;;4.70;99.90;;;;;;5092071;28;20172;-83
2024/01/13 11:42:03;;;;;;;29.83;20.20;;;4.70;99.90;;;;;;5092550;28;20183;-82
2024/01/13 11:44:34;;;;;;;32.10;19.90;;;4.70;99.90;;;;;;5091870;28;20176;-82
2024/01/13 11:47:13;;;;;;;30.63;19.90;;;4.70;99.90;;;;;;5091833;28;20651;-83
2024/01/13 11:49:45;;;;;;;33.00;21.47;;;4.70;99.90;;;;;;5092678;28;20172;-83
2024/01/13 11:52:13;;;;;;;31.33;19.93;;;4.70;99.90;;;;;;5092889;28;20199;-82
2024/01/13 11:54:40;;;;;;;26.80;19.23;;;4.70;99.90;;;;;;5092932;28;20315;-82
2024/01/13 11:57:10;;;;;;;130.63;77.03;;;4.60;99.90;;;;;;5092923;28;20670;-83
2024/01/13 11:59:37;;;;;;;32.47;22.17;;;4.70;99.90;;;;;;5091717;28;20172;-83
2024/01/13 12:02:03;;;;;;;33.77;21.20;;;4.80;99.90;;;;;;5092745;28;20206;-82
2024/01/13 12:04:30;;;;;;;44.87;25.77;;;4.70;99.90;;;;;;5091718;28;20248;-84
2024/01/13 12:06:56;;;;;;;32.93;21.23;;;4.70;99.90;;;;;;5091465;28;20176;-83
2024/01/13 12:09:27;;;;;;;38.37;22.50;;;4.80;99.90;;;;;;5091753;28;20220;-82
2024/01/13 12:12:00;;;;;;;35.17;21.10;;;4.70;99.90;;;;;;5091438;28;20212;-84
2024/01/13 12:14:27;;;;;;;34.50;20.33;;;4.70;99.90;;;;;;5092679;28;20168;-83
2024/01/13 12:16:54;;;;;;;34.50;20.93;;;4.70;99.90;;;;;;5092687;28;20172;-83
2024/01/13 12:19:20;;;;;;;31.90;21.53;;;4.80;99.90;;;;;;5093234;28;20175;-82
2024/01/13 12:21:47;;;;;;;40.27;22.77;;;4.80;99.90;;;;;;5092614;28;20172;-82
2024/01/13 12:24:14;;;;;;;38.80;22.33;;;5.00;99.90;;;;;;5092347;28;20243;-82
2024/01/13 12:26:39;;;;;;;39.83;22.07;;;5.00;99.90;;;;;;5092880;28;20176;-83
2024/01/13 12:29:05;;;;;;;33.80;21.70;;;5.00;99.90;;;;;;5092460;28;20226;-83
2024/01/13 12:31:31;;;;;;;37.43;21.80;;;4.80;99.90;;;;;;5093213;28;20223;-84